KCDR

Chadron Municipal Airport

Chadron, Nebraska, USA
METAR KCDR 212253Z AUTO 09009KT 10SM OVC050 19/12 A3027 RMK AO2 SLP243 T01940117
Observed Flight Rules
Aug-21 @ 22:53 UTC (54 minutes ago) Visual Flight Rules
Wind Visibility Clouds
90° at 9 knots 10 miles
  • Overcast at 5,000' AGL
Temperatures Readings
Current 19°C / 66°F
Dewpoint 12°C / 54°F
Humidity 64%
Altimeter 30.27" Hg
Pressure 1024.3 hPa
Elevation 1010
METAR KCDR 212253Z AUTO 09009KT 10SM OVC050 19/12 A3027 RMK AO2 SLP243 T01940117
Observed Flight Rules
Aug-21 @ 22:53 UTC
(54 minutes ago)
VFR
Wind Visibility
90° at 9 knots 10 miles
Clouds
  • Overcast at 5,000' AGL
Temperature Dewpoint
19°C / 66°F 12°C / 54°F
Humidity Altimeter Pressure
64% 30.27" Hg 1024.3 hPa